Flat Rock, Indiana
Current Conditions -  °F | °C
As of 11:45 AM on Friday 31 Oct 2014 (Local Time) from KBAK Reporting Station
Overcast Overcast  
Wind Chill: 29°   Ceiling: 1200
Heat Index: 39°   Visibility: 7mi
Dew Point: 37°   Wind: 22mph
Humidity: 93%   Direction: 310°NW
Pressure: 30.01"   Gusts: 33mph
Location:  39.36°N, 85.83°W
Report Text: KBAK 311545Z 31019G29KT 7SM BKN012 OVC032 04/03 A3001
Loading
Personal Weather Stations






























Interactive Weather Map
Tropical Storm Tracking
New forecast layout! Learn more

10-Day Weather Forecast

Advertisements
Track Severe Weather on mobile